Latest Weather Observations for Bickley

IDW60901

Issued at 12:35 am WST Wednesday 24 September 2014 (issued every 10 minutes, with the page automatically refreshed every 10 minutes)

About weather observations | Map of Perth area stations | Latest observations for Perth area | Other Formats
Station Details ID: 009240 Name: BICKLEY Lat: -32.01 Lon: 116.14 Height: 384.0 m
Data from the previous 72 hours. | See also: Recent months at Bickley
Date/Time
WST
Tmp

°C
App
Tmp
°C
Dew
Point
°C
Rel
Hum
%
Delta-T

°C
Wind Press
QNH
hPa
Press
MSL
hPa
Rain
since
9 am
mm
Dir
 
Spd
km/h
Gust
km/h
Spd
kts
Gust
kts
24/12:30am 9.0 - 7.8 92 0.6 - - - - - - - 0.0
24/12:00am 8.9 - 8.0 94 0.4 - - - - - - - 0.0
 
Date/Time
WST
Tmp

°C
App
Tmp
°C
Dew
Point
°C
Rel
Hum
%
Delta-T

°C
Wind Press
QNH
hPa
Press
MSL
hPa
Rain
since
9 am
mm
Dir
 
Spd
km/h
Gust
km/h
Spd
kts
Gust
kts
23/11:30pm 8.9 - 8.3 96 0.3 - - - - - - - 0.0
23/11:00pm 9.0 - 8.1 94 0.4 - - - - - - - 0.0
23/10:30pm 9.1 - 8.3 95 0.4 - - - - - - - 0.0
23/10:00pm 9.3 - 8.7 96 0.3 - - - - - - - 0.0
23/09:30pm 9.5 - 8.7 95 0.4 - - - - - - - 0.0
23/09:00pm 9.7 - 8.9 95 0.4 - - - - - - - 0.0
23/08:30pm 9.9 - 8.8 93 0.6 - - - - - - - 0.0
23/08:00pm 10.6 - 8.7 88 1.0 - - - - - - - 0.0
23/07:30pm 11.3 - 9.0 86 1.2 - - - - - - - 0.0
23/07:00pm 11.7 - 9.1 84 1.3 - - - - - - - 0.0
23/06:30pm 11.9 - 8.9 82 1.5 - - - - - - - 0.0
23/06:00pm 12.1 - 8.6 79 1.8 - - - - - - - 0.0
23/05:30pm 12.3 - 8.2 76 2.1 - - - - - - - 0.0
23/05:00pm 12.5 - 8.4 76 2.1 - - - - - - - 0.0
23/04:30pm 12.8 - 8.9 77 2.0 - - - - - - - 0.0
23/04:00pm 12.9 - 8.6 75 2.2 - - - - - - - 0.0
23/03:30pm 13.0 - 8.3 73 2.4 - - - - - - - 0.0
23/03:00pm 13.2 - 8.3 72 2.5 - - - - - - - 0.0
23/02:30pm 13.1 - 8.2 72 2.5 - - - - - - - 0.0
23/02:00pm 13.1 - 8.2 72 2.5 - - - - - - - 0.0
23/01:30pm 12.7 - 7.6 71 2.5 - - - - - - - 0.0
23/01:00pm 13.0 - 8.1 72 2.5 - - - - - - - 0.0
23/12:30pm 13.1 - 8.0 71 2.6 - - - - - - - 0.0
23/12:00pm 13.0 - 7.9 71 2.6 - - - - - - - 0.0
23/11:30am 13.1 - 8.2 72 2.5 - - - - - - - 0.0
23/11:00am 12.3 - 7.8 74 2.2 - - - - - - - 0.0
23/10:30am 12.1 - 7.6 74 2.2 - - - - - - - 0.0
23/10:00am 11.3 - 6.8 74 2.2 - - - - - - - 0.0
23/09:30am 11.0 - 6.9 76 2.0 - - - - - - - 0.0
23/09:00am 10.1 - 7.0 81 1.5 - - - - - - - 0.0
23/08:30am 9.7 - 6.4 80 1.6 - - - - - - - 0.0
23/08:00am 9.4 - 6.3 81 1.5 - - - - - - - 0.0
23/07:30am 8.8 - 6.2 84 1.2 - - - - - - - 0.0
23/07:00am 8.3 - 6.4 88 0.9 - - - - - - - 0.0
23/06:30am 6.5 - 5.3 92 0.5 - - - - - - - 0.0
23/06:00am 6.8 - 5.1 89 0.8 - - - - - - - 0.0
23/05:30am 6.2 - 4.8 91 0.6 - - - - - - - 0.0
23/05:00am 6.0 - 4.8 92 0.5 - - - - - - - 0.0
23/04:30am 6.1 - 4.7 91 0.6 - - - - - - - 0.0
23/04:00am 6.6 - 4.9 89 0.8 - - - - - - - 0.0
23/03:30am 6.6 - 5.1 90 0.7 - - - - - - - 0.0
23/03:00am 6.5 - 5.0 90 0.7 - - - - - - - 0.0
23/02:30am 6.9 - 5.1 88 0.8 - - - - - - - 0.0
23/02:00am 6.9 - 5.1 88 0.8 - - - - - - - 0.0
23/01:30am 6.9 - 5.1 88 0.8 - - - - - - - 0.0
23/01:00am 7.3 - 5.1 86 1.0 - - - - - - - 0.0
23/12:30am 7.7 - 5.2 84 1.1 - - - - - - - 0.0
23/12:00am 7.7 - 5.3 85 1.1 - - - - - - - 0.0
 
Date/Time
WST
Tmp

°C
App
Tmp
°C
Dew
Point
°C
Rel
Hum
%
Delta-T

°C
Wind Press
QNH
hPa
Press
MSL
hPa
Rain
since
9 am
mm
Dir
 
Spd
km/h
Gust
km/h
Spd
kts
Gust
kts
22/11:30pm 8.1 - 5.6 84 1.2 - - - - - - - 0.0
22/11:00pm 7.9 - 5.5 85 1.1 - - - - - - - 0.0
22/10:30pm 8.0 - 5.8 86 1.0 - - - - - - - 0.0
22/10:00pm 8.2 - 5.8 85 1.1 - - - - - - - 0.0
22/09:30pm 8.6 - 6.1 84 1.2 - - - - - - - 0.0
22/09:00pm 8.6 - 6.6 87 0.9 - - - - - - - 0.0
22/08:30pm 9.1 - 6.5 84 1.2 - - - - - - - 0.0
22/08:00pm 9.7 - 6.6 81 1.5 - - - - - - - 0.0
22/07:30pm 9.8 - 6.7 81 1.5 - - - - - - - 0.0
22/07:00pm 10.2 - 7.3 82 1.4 - - - - - - - 0.0
22/06:30pm 10.7 - 7.4 80 1.6 - - - - - - - 0.0
22/06:00pm 11.5 - 7.0 74 2.2 - - - - - - - 0.0
22/05:30pm 12.2 - 7.1 71 2.5 - - - - - - - 0.0
22/05:00pm 12.2 - 6.5 68 2.8 - - - - - - - 0.0
22/04:30pm 14.0 - 6.4 60 3.7 - - - - - - - 0.0
22/04:00pm 13.5 - 6.6 63 3.4 - - - - - - - 0.0
22/03:30pm 15.0 - 6.8 58 4.1 - - - - - - - 0.0
22/03:00pm 13.7 - 6.1 60 3.7 - - - - - - - 0.0
22/02:30pm 14.6 - 6.7 59 3.9 - - - - - - - 0.0
22/02:00pm 14.5 - 6.6 59 3.9 - - - - - - - 0.0
22/01:30pm 13.4 - 6.5 63 3.4 - - - - - - - 0.0
22/01:00pm 14.1 - 7.4 64 3.4 - - - - - - - 0.0
22/12:30pm 13.6 - 5.7 59 3.8 - - - - - - - 0.0
22/12:00pm 12.9 - 6.0 63 3.3 - - - - - - - 0.0
22/11:30am 12.5 - 5.2 61 3.5 - - - - - - - 0.0
22/11:00am 13.0 - 5.9 62 3.4 - - - - - - - 0.0
22/10:30am 12.8 - 6.8 67 2.9 - - - - - - - 0.0
22/10:00am 11.5 - 5.4 66 2.9 - - - - - - - 0.0
22/09:30am 11.6 - 6.5 71 2.5 - - - - - - - 0.0
22/09:00am 10.9 - 6.6 75 2.1 - - - - - - - 32.2
22/08:30am 9.9 - 6.1 77 1.8 - - - - - - - 32.2
22/08:00am 9.3 - 6.4 82 1.4 - - - - - - - 32.2
22/07:30am 8.6 - 6.6 87 0.9 - - - - - - - 32.2
22/07:00am 7.6 - 6.5 93 0.5 - - - - - - - 32.2
22/06:30am 6.8 - 6.2 96 0.3 - - - - - - - 32.2
22/06:00am 7.4 - 6.3 93 0.5 - - - - - - - 32.2
22/05:30am 7.1 - 6.4 95 0.3 - - - - - - - 32.2
22/05:00am 7.5 - 6.8 95 0.3 - - - - - - - 32.2
22/04:30am 7.4 - 6.8 96 0.3 - - - - - - - 32.2
22/04:00am 7.5 - 6.8 95 0.3 - - - - - - - 32.2
22/03:30am 7.7 - 7.1 96 0.3 - - - - - - - 32.2
22/03:00am 7.6 - 7.2 97 0.2 - - - - - - - 32.2
22/02:30am 7.6 - 7.3 98 0.1 - - - - - - - 32.2
22/02:00am 7.8 - 7.7 99 0.0 - - - - - - - 32.2
22/01:30am 8.1 - 7.8 98 0.1 - - - - - - - 32.2
22/01:00am 8.3 - 8.0 98 0.1 - - - - - - - 32.2
22/12:30am 8.5 - 8.4 99 0.0 - - - - - - - 32.2
22/12:00am 8.7 - 8.6 99 0.0 - - - - - - - 32.2
 
Date/Time
WST
Tmp

°C
App
Tmp
°C
Dew
Point
°C
Rel
Hum
%
Delta-T

°C
Wind Press
QNH
hPa
Press
MSL
hPa
Rain
since
9 am
mm
Dir
 
Spd
km/h
Gust
km/h
Spd
kts
Gust
kts
21/11:30pm 8.9 - 8.8 99 0.0 - - - - - - - 32.2
21/11:00pm 9.0 - 8.9 99 0.0 - - - - - - - 32.2
21/10:30pm 9.1 - 9.0 99 0.1 - - - - - - - 31.6
21/10:00pm 9.2 - 9.1 99 0.1 - - - - - - - 31.2
21/09:30pm 9.1 - 8.5 96 0.3 - - - - - - - 31.2
21/09:00pm 9.1 - 8.6 97 0.2 - - - - - - - 31.2
21/08:30pm 9.6 - 9.5 99 0.1 - - - - - - - 30.6
21/08:00pm 9.7 - 9.6 99 0.1 - - - - - - - 30.0
21/07:30pm 9.8 - 9.7 99 0.1 - - - - - - - 29.8
21/07:00pm 10.3 - 10.1 99 0.1 - - - - - - - 29.0
21/06:30pm 11.0 - 10.8 99 0.1 - - - - - - - 25.6
21/06:00pm 11.2 - 11.0 99 0.1 - - - - - - - 21.0
21/05:30pm 11.3 - 11.1 99 0.1 - - - - - - - 21.0
21/05:00pm 11.3 - 11.1 99 0.1 - - - - - - - 21.0
21/04:30pm 11.4 - 11.2 99 0.1 - - - - - - - 21.0
21/04:00pm 11.3 - 11.1 99 0.1 - - - - - - - 21.0
21/03:30pm 11.2 - 11.0 99 0.1 - - - - - - - 21.0
21/03:00pm 11.1 - 10.9 99 0.1 - - - - - - - 20.6
21/02:30pm 10.8 - 10.6 99 0.1 - - - - - - - 20.0
21/02:00pm 10.7 - 10.5 99 0.1 - - - - - - - 18.4
21/01:30pm 11.4 - 11.2 99 0.1 - - - - - - - 15.4
21/01:00pm 11.9 - 11.7 99 0.1 - - - - - - - 13.4
21/12:30pm 11.4 - 11.2 99 0.1 - - - - - - - 11.4
21/12:00pm 12.0 - 11.8 99 0.1 - - - - - - - 6.8
21/11:30am 12.3 - 12.1 99 0.1 - - - - - - - 3.0
21/11:00am 13.1 - 12.9 99 0.1 - - - - - - - 1.4
21/10:30am 15.3 - 14.0 92 0.7 - - - - - - - 0.0
21/10:00am 19.0 - 12.0 64 3.9 - - - - - - - 0.0
21/09:30am 19.0 - 10.8 59 4.5 - - - - - - - 0.0
21/09:00am 18.9 - 10.5 58 4.6 - - - - - - - 0.0
21/08:30am 18.6 - 10.9 61 4.2 - - - - - - - 0.0
21/08:00am 18.5 - 10.3 59 4.5 - - - - - - - 0.0
21/07:30am 17.2 - 9.9 62 3.9 - - - - - - - 0.0
21/07:00am 16.2 - 10.3 68 3.2 - - - - - - - 0.0
21/06:30am 15.5 - 10.3 71 2.8 - - - - - - - 0.0
21/06:00am 14.9 - 10.5 75 2.4 - - - - - - - 0.0
21/05:30am 15.3 - 10.9 75 2.4 - - - - - - - 0.0
21/05:00am 15.9 - 11.3 74 2.5 - - - - - - - 0.0
21/04:30am 15.9 - 11.3 74 2.5 - - - - - - - 0.0
21/04:00am 16.6 - 11.5 72 2.8 - - - - - - - 0.0
21/03:30am 17.3 - 11.6 69 3.2 - - - - - - - 0.0
21/03:00am 17.5 - 10.4 63 3.9 - - - - - - - 0.0
21/02:30am 17.3 - 10.4 64 3.7 - - - - - - - 0.0
21/02:00am 16.3 - 11.0 71 2.9 - - - - - - - 0.0
21/01:30am 15.8 - 11.8 77 2.2 - - - - - - - 0.0
21/01:00am 15.4 - 13.4 88 1.1 - - - - - - - 0.0

Latest Capital City Observations: Canberra | Sydney | Melbourne | Brisbane | Adelaide | Perth | Hobart | Darwin

Other Formats:

Comma delimited format used in spreadsheet applications
http://www.bom.gov.au/fwo/IDW60901/IDW60901.95610.axf

JavaScript Object Notation format (JSON) in row-major order
http://www.bom.gov.au/fwo/IDW60901/IDW60901.95610.json